createdAt,value
2022-10-02T00:00:19.567Z,1.27
2022-10-02T00:03:15.662Z,1.80
2022-10-02T00:06:09.105Z,1.85
2022-10-02T00:09:04.016Z,2.13
2022-10-02T00:11:57.945Z,2.15
2022-10-02T00:14:48.220Z,1.90
2022-10-02T00:17:40.584Z,2.42
2022-10-02T00:20:35.193Z,2.60
2022-10-02T00:23:29.289Z,2.57
2022-10-02T00:26:24.520Z,2.60
2022-10-02T00:29:29.628Z,2.45
2022-10-02T00:32:26.050Z,2.53
2022-10-02T00:35:37.040Z,2.80
2022-10-02T00:38:38.746Z,2.57
2022-10-02T00:42:14.845Z,3.33
2022-10-02T00:45:32.009Z,3.35
2022-10-02T00:48:34.628Z,3.22
2022-10-02T00:51:39.585Z,2.92
2022-10-02T00:54:55.055Z,3.07
2022-10-02T00:58:01.400Z,3.03
2022-10-02T01:01:01.066Z,3.30
2022-10-02T01:03:53.395Z,3.13
2022-10-02T01:06:41.611Z,3.45
2022-10-02T01:09:29.830Z,2.50
2022-10-02T01:12:17.778Z,3.80
2022-10-02T01:15:12.685Z,3.08
2022-10-02T01:18:03.319Z,3.25
2022-10-02T01:20:53.768Z,3.38
2022-10-02T01:23:49.220Z,2.90
2022-10-02T01:26:38.280Z,2.88
2022-10-02T01:29:26.078Z,3.53
2022-10-02T01:32:13.623Z,2.90
2022-10-02T01:35:02.727Z,3.05
2022-10-02T01:37:52.430Z,3.10
2022-10-02T01:40:41.989Z,2.67
2022-10-02T01:43:35.852Z,3.05
2022-10-02T01:46:34.459Z,2.78
2022-10-02T01:49:40.999Z,3.42
2022-10-02T01:52:48.253Z,3.23
2022-10-02T01:55:42.321Z,3.20
2022-10-02T01:58:37.503Z,3.20
2022-10-02T02:01:40.080Z,3.30
2022-10-02T02:04:32.401Z,3.58
2022-10-02T02:07:28.455Z,3.53
2022-10-02T02:10:24.930Z,3.63
2022-10-02T02:13:17.493Z,3.75
2022-10-02T02:16:13.641Z,4.10
2022-10-02T02:19:05.847Z,4.10
2022-10-02T02:22:01.483Z,4.80
2022-10-02T02:24:53.719Z,4.25
2022-10-02T02:27:45.804Z,4.68
2022-10-02T02:30:35.237Z,5.40
2022-10-02T02:33:28.990Z,4.80
2022-10-02T02:36:21.735Z,4.83
2022-10-02T02:39:13.291Z,4.88
2022-10-02T02:42:04.653Z,5.40
2022-10-02T02:44:56.738Z,5.70
2022-10-02T02:47:50.088Z,5.78
2022-10-02T02:50:44.006Z,5.90
2022-10-02T02:53:38.720Z,6.32
2022-10-02T02:56:28.997Z,6.25
2022-10-02T02:59:16.822Z,5.60
2022-10-02T03:02:04.475Z,6.22
2022-10-02T03:04:51.918Z,5.53
2022-10-02T03:07:41.521Z,5.38
2022-10-02T03:10:40.358Z,4.95
2022-10-02T03:13:42.888Z,4.60
2022-10-02T03:16:42.792Z,4.82
2022-10-02T03:19:41.797Z,3.83
2022-10-02T03:22:37.070Z,4.57
2022-10-02T03:25:32.111Z,4.32
2022-10-02T03:28:50.522Z,3.95
2022-10-02T03:31:35.333Z,3.60
2022-10-02T03:34:23.681Z,4.07
2022-10-02T03:37:10.869Z,4.40
2022-10-02T03:40:01.343Z,4.30
2022-10-02T03:42:51.837Z,4.82
2022-10-02T03:45:51.090Z,5.30
2022-10-02T03:48:39.100Z,5.63
2022-10-02T03:51:26.374Z,6.70
2022-10-02T03:54:18.079Z,5.72
2022-10-02T03:57:07.742Z,7.15
2022-10-02T04:00:02.721Z,7.60
2022-10-02T04:02:59.844Z,8.20
2022-10-02T04:05:52.960Z,7.00
2022-10-02T04:08:45.198Z,7.30
2022-10-02T04:11:37.104Z,7.15
2022-10-02T04:14:30.073Z,7.22
2022-10-02T04:17:23.413Z,7.17
2022-10-02T04:20:18.245Z,6.82
2022-10-02T04:23:16.840Z,6.55
2022-10-02T04:26:11.881Z,6.40
2022-10-02T04:29:03.500Z,6.32
2022-10-02T04:31:55.199Z,6.10
2022-10-02T04:34:44.234Z,5.53
2022-10-02T04:37:46.962Z,5.00
2022-10-02T04:40:52.622Z,4.63
2022-10-02T04:43:52.634Z,5.75
2022-10-02T04:46:57.204Z,4.70
2022-10-02T04:49:59.761Z,4.65
2022-10-02T04:53:03.753Z,4.72
2022-10-02T04:56:07.309Z,4.40
2022-10-02T04:59:08.717Z,4.20
2022-10-02T05:02:03.801Z,3.87
2022-10-02T05:05:19.246Z,4.18
2022-10-02T05:08:26.013Z,4.95
2022-10-02T05:11:32.051Z,4.20
2022-10-02T05:14:38.402Z,4.13
2022-10-02T05:17:43.176Z,3.97
2022-10-02T05:20:46.450Z,3.92
2022-10-02T05:23:47.177Z,3.97
2022-10-02T05:26:50.198Z,3.60
2022-10-02T05:30:03.329Z,3.97
2022-10-02T05:33:13.980Z,4.60
2022-10-02T05:36:22.586Z,3.53
2022-10-02T05:39:15.307Z,4.60
2022-10-02T05:42:13.673Z,5.47
2022-10-02T05:45:05.247Z,5.47
2022-10-02T05:47:56.678Z,5.60
2022-10-02T05:50:50.503Z,6.63
2022-10-02T05:53:44.996Z,6.07
2022-10-02T05:56:37.430Z,6.07
2022-10-02T05:59:32.759Z,6.97
2022-10-02T06:04:36.007Z,7.67
2022-10-02T06:07:25.434Z,7.57
2022-10-02T06:10:17.980Z,7.13
2022-10-02T06:13:13.900Z,8.00
2022-10-02T06:16:10.171Z,7.50
2022-10-02T06:19:04.148Z,8.13
2022-10-02T06:21:59.018Z,8.13
2022-10-02T06:24:51.971Z,7.82
2022-10-02T06:27:44.591Z,7.43
2022-10-02T06:30:36.484Z,7.07
2022-10-02T06:33:25.463Z,7.22
2022-10-02T06:36:38.011Z,7.38
2022-10-02T06:39:43.320Z,7.07
2022-10-02T06:42:43.300Z,7.25
2022-10-02T06:45:40.123Z,6.80
2022-10-02T06:48:37.527Z,7.00
2022-10-02T06:51:36.248Z,6.65
2022-10-02T06:54:37.469Z,6.25
2022-10-02T06:57:39.724Z,6.93
2022-10-02T07:00:27.141Z,6.87
2022-10-02T07:03:42.258Z,6.43
2022-10-02T07:06:42.837Z,6.93
2022-10-02T07:10:05.452Z,6.13
2022-10-02T07:13:09.472Z,5.88
2022-10-02T07:16:25.309Z,5.83
2022-10-02T07:19:35.328Z,6.30
2022-10-02T07:22:44.672Z,6.55
2022-10-02T07:25:49.857Z,5.80
2022-10-02T07:28:43.561Z,4.57
2022-10-02T07:31:46.834Z,5.47
2022-10-02T07:34:42.579Z,5.15
2022-10-02T07:37:43.030Z,5.70
2022-10-02T07:40:44.640Z,5.93
2022-10-02T07:43:50.033Z,4.55
2022-10-02T07:46:45.491Z,5.20
2022-10-02T07:49:48.029Z,5.50
2022-10-02T07:52:43.586Z,5.18
2022-10-02T07:55:31.440Z,4.82
2022-10-02T07:58:24.523Z,4.68
2022-10-02T08:01:17.697Z,4.90
2022-10-02T08:04:11.929Z,4.32
2022-10-02T08:07:03.710Z,4.50
2022-10-02T08:09:54.725Z,3.92
2022-10-02T08:12:48.650Z,4.65
2022-10-02T08:15:39.185Z,3.90
2022-10-02T08:18:35.604Z,4.13
2022-10-02T08:21:25.622Z,4.22
2022-10-02T08:24:16.620Z,4.25
2022-10-02T08:27:11.921Z,4.85
2022-10-02T08:30:04.187Z,4.00
2022-10-02T08:32:51.399Z,4.25
2022-10-02T08:35:46.549Z,3.85
2022-10-02T08:38:42.844Z,3.95
2022-10-02T08:42:04.269Z,3.80
2022-10-02T08:45:42.264Z,3.60
2022-10-02T08:49:19.708Z,3.35
2022-10-02T08:52:30.170Z,4.47
2022-10-02T08:55:33.106Z,3.75
2022-10-02T08:58:54.705Z,3.08
2022-10-02T09:02:47.710Z,3.63
2022-10-02T09:06:03.889Z,3.13
2022-10-02T09:09:27.720Z,3.10
2022-10-02T09:12:38.040Z,3.13
2022-10-02T09:15:44.722Z,3.22
2022-10-02T09:18:50.481Z,2.93
2022-10-02T09:21:56.013Z,3.03
2022-10-02T09:25:22.088Z,2.65
2022-10-02T09:28:54.346Z,2.70
2022-10-02T09:32:13.944Z,3.15
2022-10-02T09:35:38.317Z,3.13
2022-10-02T09:39:05.954Z,3.42
2022-10-02T09:42:32.610Z,2.60
2022-10-02T09:45:45.255Z,2.40
2022-10-02T09:49:00.768Z,2.60
2022-10-02T09:52:23.355Z,2.77
2022-10-02T09:55:45.579Z,2.45
2022-10-02T09:59:17.531Z,2.50
2022-10-02T10:02:50.761Z,2.65
2022-10-02T10:06:19.742Z,2.33
2022-10-02T10:09:43.009Z,2.87
2022-10-02T10:12:51.338Z,2.30
2022-10-02T10:16:11.974Z,2.25
2022-10-02T10:19:27.625Z,2.75
2022-10-02T10:22:46.460Z,2.40
2022-10-02T10:25:53.331Z,2.57
2022-10-02T10:29:09.077Z,2.50
2022-10-02T10:32:57.027Z,2.72
2022-10-02T10:36:43.322Z,2.60
2022-10-02T10:39:56.957Z,2.47
2022-10-02T10:43:15.770Z,2.57
2022-10-02T10:46:34.630Z,2.20
2022-10-02T10:50:24.129Z,2.50
2022-10-02T10:53:37.559Z,2.20
2022-10-02T10:56:37.989Z,2.25
2022-10-02T11:00:11.262Z,1.90
2022-10-02T11:03:37.121Z,2.42
2022-10-02T11:06:56.421Z,1.88
2022-10-02T11:10:31.825Z,2.03
2022-10-02T11:13:44.042Z,2.42
2022-10-02T11:17:05.549Z,2.60
2022-10-02T11:20:11.659Z,3.00
2022-10-02T11:23:19.575Z,2.58
2022-10-02T11:26:35.616Z,2.40
2022-10-02T11:30:00.031Z,2.08
2022-10-02T11:33:11.723Z,1.20
2022-10-02T11:36:41.871Z,1.67
2022-10-02T11:39:52.767Z,1.20
2022-10-02T11:43:03.380Z,1.40
2022-10-02T11:46:25.043Z,1.95
2022-10-02T11:49:45.527Z,1.10
2022-10-02T11:52:53.550Z,1.40
2022-10-02T11:55:58.030Z,1.40
2022-10-02T11:58:55.068Z,0.90
2022-10-02T12:01:47.417Z,1.30
2022-10-02T12:04:47.381Z,1.20
2022-10-02T12:07:45.740Z,1.25
2022-10-02T12:10:42.187Z,1.27
2022-10-02T12:13:52.064Z,1.13
2022-10-02T12:16:56.040Z,1.10
2022-10-02T12:20:24.909Z,1.20
2022-10-02T12:23:44.851Z,1.63
2022-10-02T12:27:00.392Z,1.00
2022-10-02T12:30:02.364Z,1.13
2022-10-02T12:33:16.214Z,1.08
2022-10-02T12:36:45.042Z,0.90
2022-10-02T12:39:43.677Z,0.80
2022-10-02T12:43:00.344Z,1.38
2022-10-02T12:46:14.519Z,1.00
2022-10-02T12:49:27.916Z,1.00
2022-10-02T12:52:54.349Z,0.87
2022-10-02T12:56:08.097Z,0.90
2022-10-02T12:59:05.160Z,1.10
2022-10-02T13:03:01.859Z,1.33
2022-10-02T13:06:29.708Z,1.10
2022-10-02T13:09:45.631Z,1.00
2022-10-02T13:12:54.192Z,0.73
2022-10-02T13:15:53.881Z,1.00
2022-10-02T13:18:57.081Z,0.80
2022-10-02T13:21:56.078Z,1.00
2022-10-02T13:24:56.168Z,0.90
2022-10-02T13:27:53.053Z,0.82
2022-10-02T13:30:47.682Z,0.85
2022-10-02T13:34:00.769Z,1.10
2022-10-02T13:37:07.126Z,0.90
2022-10-02T13:40:13.497Z,1.30
2022-10-02T13:43:37.702Z,0.85
2022-10-02T13:46:39.986Z,0.90
2022-10-02T13:49:41.500Z,0.93
2022-10-02T13:52:37.736Z,1.33
2022-10-02T13:55:29.243Z,1.77
2022-10-02T13:58:37.084Z,1.20
2022-10-02T14:01:36.883Z,0.70
2022-10-02T14:04:38.210Z,0.80
2022-10-02T14:07:58.991Z,0.80
2022-10-02T14:11:01.616Z,1.60
2022-10-02T14:14:09.801Z,1.10
2022-10-02T14:17:10.356Z,1.15
2022-10-02T14:20:18.696Z,1.00
2022-10-02T14:23:27.118Z,0.95
2022-10-02T14:26:21.211Z,0.90
2022-10-02T14:29:24.234Z,0.85
2022-10-02T14:32:50.227Z,1.25
2022-10-02T14:35:50.306Z,0.73
2022-10-02T14:39:01.577Z,0.95
2022-10-02T14:42:15.098Z,0.90
2022-10-02T14:45:31.936Z,0.88
2022-10-02T14:48:30.944Z,1.20
2022-10-02T14:51:36.857Z,0.93
2022-10-02T14:54:36.020Z,1.00
2022-10-02T14:57:43.567Z,1.10
2022-10-02T15:00:41.141Z,0.70
2022-10-02T15:03:55.745Z,1.00
2022-10-02T15:07:00.055Z,1.00
2022-10-02T15:10:03.623Z,1.02
2022-10-02T15:13:02.315Z,2.00
2022-10-02T15:16:14.927Z,1.20
2022-10-02T15:19:09.926Z,1.20
2022-10-02T15:22:02.349Z,0.80
2022-10-02T15:24:55.789Z,1.25
2022-10-02T15:27:46.905Z,1.13
2022-10-02T15:30:39.576Z,1.63
2022-10-02T15:33:36.968Z,1.70
2022-10-02T15:36:39.771Z,1.30
2022-10-02T15:39:46.392Z,1.60
2022-10-02T15:42:50.096Z,1.07
2022-10-02T15:45:59.814Z,1.17
2022-10-02T15:49:02.248Z,1.00
2022-10-02T15:52:04.065Z,1.17
2022-10-02T15:55:02.076Z,1.48
2022-10-02T15:58:05.376Z,1.30
2022-10-02T16:01:17.911Z,1.20
2022-10-02T16:04:15.208Z,1.13
2022-10-02T16:07:36.102Z,1.00
2022-10-02T16:10:26.606Z,0.90
2022-10-02T16:13:34.499Z,0.93
2022-10-02T16:16:50.592Z,1.13
2022-10-02T16:19:51.598Z,1.10
2022-10-02T16:22:57.288Z,1.10
2022-10-02T16:26:01.710Z,1.23
2022-10-02T16:28:56.090Z,1.23
2022-10-02T16:32:03.218Z,0.93
2022-10-02T16:35:13.978Z,0.80
2022-10-02T16:38:06.395Z,1.58
2022-10-02T16:40:58.926Z,2.05
2022-10-02T16:44:00.718Z,2.23
2022-10-02T16:46:52.878Z,1.80
2022-10-02T16:49:51.247Z,1.40
2022-10-02T16:52:44.804Z,1.40
2022-10-02T16:55:37.182Z,0.80
2022-10-02T16:58:28.401Z,0.97
2022-10-02T17:01:25.698Z,1.10
2022-10-02T17:04:33.089Z,0.95
2022-10-02T17:07:30.179Z,1.05
2022-10-02T17:10:26.452Z,1.20
2022-10-02T17:13:29.280Z,1.00
2022-10-02T17:16:23.737Z,0.85
2022-10-02T17:19:23.620Z,1.13
2022-10-02T17:22:26.885Z,0.68
2022-10-02T17:25:22.587Z,1.13
2022-10-02T17:28:22.959Z,0.90
2022-10-02T17:31:36.182Z,0.75
2022-10-02T17:34:25.527Z,1.05
2022-10-02T17:37:57.442Z,0.90
2022-10-02T17:40:59.144Z,0.80
2022-10-02T17:43:58.222Z,1.30
2022-10-02T17:47:19.288Z,0.95
2022-10-02T17:50:27.991Z,2.03
2022-10-02T17:53:50.829Z,0.80
2022-10-02T17:57:13.472Z,0.70
2022-10-02T18:00:17.847Z,1.10
2022-10-02T18:03:27.568Z,1.00
2022-10-02T18:06:22.283Z,1.20
2022-10-02T18:09:25.649Z,1.00
2022-10-02T18:12:28.253Z,1.23
2022-10-02T18:15:40.297Z,1.50
2022-10-02T18:18:35.299Z,1.25
2022-10-02T18:21:34.476Z,2.40
2022-10-02T18:24:35.943Z,1.75
2022-10-02T18:27:52.232Z,1.58
2022-10-02T18:30:50.270Z,2.97
2022-10-02T18:33:56.761Z,2.22
2022-10-02T18:37:01.935Z,2.20
2022-10-02T18:40:06.869Z,2.42
2022-10-02T18:43:14.856Z,1.73
2022-10-02T18:46:12.924Z,1.87
2022-10-02T18:49:16.411Z,2.33
2022-10-02T18:52:38.844Z,1.90
2022-10-02T18:55:50.157Z,1.95
2022-10-02T18:58:53.703Z,2.17
2022-10-02T19:01:51.524Z,1.97
2022-10-02T19:04:53.925Z,1.80
2022-10-02T19:07:45.150Z,1.83
2022-10-02T19:10:41.059Z,1.70
2022-10-02T19:13:30.016Z,2.03
2022-10-02T19:16:26.071Z,1.90
2022-10-02T19:19:20.291Z,1.27
2022-10-02T19:22:17.717Z,1.83
2022-10-02T19:25:08.554Z,1.48
2022-10-02T19:27:56.477Z,1.38
2022-10-02T19:30:50.095Z,1.73
2022-10-02T19:33:46.937Z,1.92
2022-10-02T19:36:40.073Z,1.88
2022-10-02T19:39:30.730Z,1.58
2022-10-02T19:42:24.744Z,1.80
2022-10-02T19:45:25.460Z,1.63
2022-10-02T19:48:18.767Z,1.60
2022-10-02T19:51:16.999Z,2.22
2022-10-02T19:54:06.375Z,1.50
2022-10-02T19:56:58.096Z,1.70
2022-10-02T19:59:49.876Z,1.33
2022-10-02T20:02:41.840Z,1.35
2022-10-02T20:05:32.791Z,1.63
2022-10-02T20:08:28.161Z,1.88
2022-10-02T20:11:21.578Z,2.15
2022-10-02T20:14:15.641Z,1.97
2022-10-02T20:17:10.901Z,1.85
2022-10-02T20:20:00.841Z,1.73
2022-10-02T20:22:53.650Z,1.75
2022-10-02T20:25:48.071Z,1.88
2022-10-02T20:28:44.129Z,1.70
2022-10-02T20:31:41.026Z,1.70
2022-10-02T20:34:33.411Z,1.83
2022-10-02T20:37:26.382Z,1.90
2022-10-02T20:40:19.139Z,2.38
2022-10-02T20:43:16.268Z,2.40
2022-10-02T20:46:30.793Z,2.20
2022-10-02T20:49:53.874Z,2.00
2022-10-02T20:53:19.973Z,2.35
2022-10-02T20:56:17.796Z,2.60
2022-10-02T20:59:27.047Z,2.57
2022-10-02T21:02:33.148Z,2.30
2022-10-02T21:05:55.311Z,2.30
2022-10-02T21:09:16.001Z,2.15
2022-10-02T21:12:27.012Z,1.92
2022-10-02T21:15:42.409Z,1.60
2022-10-02T21:19:03.865Z,2.03
2022-10-02T21:22:27.991Z,2.00
2022-10-02T21:25:53.846Z,1.83
2022-10-02T21:29:04.084Z,2.10
2022-10-02T21:32:20.465Z,1.83
2022-10-02T21:35:17.583Z,2.13
2022-10-02T21:38:35.596Z,1.90
2022-10-02T21:41:52.884Z,1.77
2022-10-02T21:45:26.025Z,1.85
2022-10-02T21:48:49.442Z,1.50
2022-10-02T21:52:04.657Z,1.60
2022-10-02T21:55:27.869Z,1.77
2022-10-02T21:58:56.217Z,2.25
2022-10-02T22:02:09.349Z,1.83
2022-10-02T22:05:22.941Z,1.70
2022-10-02T22:08:23.900Z,1.88
2022-10-02T22:11:18.153Z,2.10
2022-10-02T22:14:12.795Z,1.60
2022-10-02T22:17:14.684Z,1.55
2022-10-02T22:20:21.224Z,1.50
2022-10-02T22:23:22.100Z,1.60
2022-10-02T22:26:23.929Z,1.20
2022-10-02T22:29:16.660Z,1.38
2022-10-02T22:32:38.188Z,1.70
2022-10-02T22:35:37.773Z,0.70
2022-10-02T22:38:33.595Z,1.00
2022-10-02T22:41:30.125Z,1.20
2022-10-02T22:44:26.329Z,1.42
2022-10-02T22:47:30.149Z,1.50
2022-10-02T22:50:28.840Z,1.40
2022-10-02T22:53:25.498Z,2.35
2022-10-02T22:56:27.527Z,1.75
2022-10-02T22:59:23.205Z,1.58
2022-10-02T23:02:20.595Z,1.85
2022-10-02T23:05:15.595Z,1.13
2022-10-02T23:08:12.682Z,1.30
2022-10-02T23:11:06.677Z,1.30
2022-10-02T23:14:01.725Z,0.95
2022-10-02T23:16:54.976Z,1.00
2022-10-02T23:19:45.798Z,0.80
2022-10-02T23:22:37.914Z,0.98
2022-10-02T23:25:34.121Z,0.80
2022-10-02T23:28:29.061Z,0.68
2022-10-02T23:31:22.962Z,0.98
2022-10-02T23:34:18.378Z,0.70
2022-10-02T23:37:13.809Z,1.05
2022-10-02T23:40:16.180Z,1.10
2022-10-02T23:43:06.284Z,0.52
2022-10-02T23:46:00.021Z,1.20
2022-10-02T23:48:49.133Z,0.80
2022-10-02T23:51:47.952Z,0.68
2022-10-02T23:54:47.631Z,0.77
2022-10-02T23:57:57.578Z,1.10
